createdAt,value
2022-08-14T00:01:10.066Z,100547.78
2022-08-14T00:03:38.532Z,100550.72
2022-08-14T00:06:25.500Z,100546.53
2022-08-14T00:08:54.208Z,100546.69
2022-08-14T00:11:26.116Z,100543.47
2022-08-14T00:13:55.445Z,100544.00
2022-08-14T00:16:40.849Z,100547.16
2022-08-14T00:19:19.792Z,100528.81
2022-08-14T00:21:52.404Z,100527.75
2022-08-14T00:24:28.236Z,100527.97
2022-08-14T00:26:57.036Z,100527.47
2022-08-14T00:29:25.108Z,100523.34
2022-08-14T00:31:56.270Z,100523.25
2022-08-14T00:34:37.952Z,100518.03
2022-08-14T00:37:10.878Z,100519.69
2022-08-14T00:39:37.669Z,100507.75
2022-08-14T00:42:05.127Z,100508.97
2022-08-14T00:44:33.298Z,100509.03
2022-08-14T00:47:10.690Z,100502.47
2022-08-14T00:49:42.561Z,100503.91
2022-08-14T00:52:17.880Z,100499.84
2022-08-14T00:54:46.500Z,100487.53
2022-08-14T00:57:13.778Z,100486.91
2022-08-14T00:59:41.253Z,100485.59
2022-08-14T01:02:09.442Z,100496.09
2022-08-14T01:04:53.927Z,100495.75
2022-08-14T01:07:23.055Z,100496.78
2022-08-14T01:10:01.870Z,100492.53
2022-08-14T01:12:30.085Z,100495.13
2022-08-14T01:14:59.238Z,100475.59
2022-08-14T01:17:50.621Z,100465.13
2022-08-14T01:20:39.864Z,100469.19
2022-08-14T01:23:16.477Z,100462.78
2022-08-14T01:25:45.993Z,100462.78
2022-08-14T01:28:34.246Z,100466.50
2022-08-14T01:30:59.927Z,100470.75
2022-08-14T01:33:39.600Z,100462.66
2022-08-14T01:36:23.198Z,100463.25
2022-08-14T01:38:56.837Z,100464.84
2022-08-14T01:41:30.141Z,100470.50
2022-08-14T01:44:02.301Z,100474.00
2022-08-14T01:46:36.865Z,100473.38
2022-08-14T01:49:07.769Z,100478.34
2022-08-14T01:51:35.271Z,100479.03
2022-08-14T01:54:09.904Z,100476.06
2022-08-14T01:56:42.790Z,100471.94
2022-08-14T01:59:21.877Z,100464.91
2022-08-14T02:01:58.423Z,100460.63
2022-08-14T02:04:55.773Z,100459.38
2022-08-14T02:07:17.605Z,100446.81
2022-08-14T02:10:01.787Z,100445.16
2022-08-14T02:12:29.391Z,100439.75
2022-08-14T02:15:00.202Z,100439.81
2022-08-14T02:17:29.117Z,100437.59
2022-08-14T02:19:57.483Z,100436.25
2022-08-14T02:22:29.055Z,100429.50
2022-08-14T02:25:01.014Z,100432.44
2022-08-14T02:28:24.681Z,100426.88
2022-08-14T02:30:15.954Z,100423.81
2022-08-14T02:32:43.102Z,100425.88
2022-08-14T02:35:18.590Z,100423.06
2022-08-14T02:37:50.053Z,100430.56
2022-08-14T02:40:31.791Z,100425.53
2022-08-14T02:42:59.787Z,100418.06
2022-08-14T02:45:38.348Z,100414.66
2022-08-14T02:49:04.654Z,100418.28
2022-08-14T02:51:00.991Z,100417.41
2022-08-14T02:53:29.170Z,100409.97
2022-08-14T02:55:56.467Z,100420.84
2022-08-14T02:58:31.103Z,100416.94
2022-08-14T03:00:59.169Z,100412.31
2022-08-14T03:03:26.035Z,100408.75
2022-08-14T03:05:54.303Z,100419.25
2022-08-14T03:08:22.438Z,100419.00
2022-08-14T03:10:50.019Z,100415.41
2022-08-14T03:13:21.571Z,100412.19
2022-08-14T03:15:55.542Z,100413.47
2022-08-14T03:18:31.197Z,100412.19
2022-08-14T03:21:05.114Z,100409.09
2022-08-14T03:23:36.492Z,100411.97
2022-08-14T03:26:13.020Z,100406.09
2022-08-14T03:28:51.275Z,100402.06
2022-08-14T03:31:26.028Z,100402.81
2022-08-14T03:33:55.917Z,100390.94
2022-08-14T03:37:50.962Z,100395.13
2022-08-14T03:39:21.131Z,100387.47
2022-08-14T03:41:59.841Z,100387.91
2022-08-14T03:45:27.351Z,100385.44
2022-08-14T03:47:15.475Z,100392.38
2022-08-14T03:49:43.902Z,100385.00
2022-08-14T03:52:28.087Z,100376.94
2022-08-14T03:54:59.148Z,100370.31
2022-08-14T03:57:25.614Z,100378.59
2022-08-14T03:59:52.113Z,100375.63
2022-08-14T04:02:32.361Z,100375.97
2022-08-14T04:05:12.360Z,100371.06
2022-08-14T04:07:49.902Z,100370.66
2022-08-14T04:10:32.039Z,100356.13
2022-08-14T04:13:03.758Z,100352.69
2022-08-14T04:15:31.796Z,100351.97
2022-08-14T04:18:18.360Z,100346.94
2022-08-14T04:20:54.531Z,100353.63
2022-08-14T04:23:23.621Z,100366.38
2022-08-14T04:25:55.555Z,100359.88
2022-08-14T04:29:01.945Z,100365.94
2022-08-14T04:31:11.272Z,100366.91
2022-08-14T04:33:37.929Z,100370.94
2022-08-14T04:36:05.699Z,100377.47
2022-08-14T04:38:54.338Z,100383.28
2022-08-14T04:41:43.210Z,100392.91
2022-08-14T04:44:09.815Z,100407.44
2022-08-14T04:47:11.174Z,100401.53
2022-08-14T04:49:46.513Z,100401.69
2022-08-14T04:52:24.891Z,100400.59
2022-08-14T04:54:52.076Z,100406.03
2022-08-14T04:57:21.216Z,100399.16
2022-08-14T04:59:49.568Z,100408.09
2022-08-14T05:02:17.548Z,100407.47
2022-08-14T05:04:45.531Z,100410.03
2022-08-14T05:07:46.588Z,100407.97
2022-08-14T05:10:16.782Z,100406.97
2022-08-14T05:13:13.018Z,100411.75
2022-08-14T05:15:37.352Z,100396.97
2022-08-14T05:18:37.180Z,100406.22
2022-08-14T05:21:57.306Z,100406.06
2022-08-14T05:23:52.068Z,100409.50
2022-08-14T05:26:21.644Z,100406.41
2022-08-14T05:28:48.325Z,100405.97
2022-08-14T05:31:20.715Z,100412.59
2022-08-14T05:33:56.621Z,100411.16
2022-08-14T05:36:24.626Z,100406.84
2022-08-14T05:38:53.207Z,100405.44
2022-08-14T05:41:20.122Z,100408.25
2022-08-14T05:43:48.838Z,100410.41
2022-08-14T05:46:18.658Z,100407.72
2022-08-14T05:48:53.212Z,100419.34
2022-08-14T05:51:23.553Z,100425.00
2022-08-14T05:54:00.153Z,100426.22
2022-08-14T05:56:29.043Z,100427.72
2022-08-14T05:58:55.849Z,100426.50
2022-08-14T06:01:22.455Z,100420.09
2022-08-14T06:03:50.205Z,100422.59
2022-08-14T06:06:21.085Z,100415.09
2022-08-14T06:08:47.602Z,100415.56
2022-08-14T06:11:14.766Z,100412.16
2022-08-14T06:13:47.513Z,100412.28
2022-08-14T06:16:17.478Z,100402.88
2022-08-14T06:18:47.104Z,100409.50
2022-08-14T06:21:15.836Z,100407.75
2022-08-14T06:23:44.040Z,100412.34
2022-08-14T06:26:15.397Z,100410.03
2022-08-14T06:28:45.586Z,100410.44
2022-08-14T06:31:12.198Z,100407.63
2022-08-14T06:35:04.125Z,100404.44
2022-08-14T06:36:25.162Z,100391.47
2022-08-14T06:38:54.305Z,100388.47
2022-08-14T06:41:57.102Z,100383.63
2022-08-14T06:44:10.780Z,100388.09
2022-08-14T06:46:38.591Z,100396.72
2022-08-14T06:49:05.381Z,100391.72
2022-08-14T06:51:44.406Z,100397.41
2022-08-14T06:54:11.526Z,100392.75
2022-08-14T06:56:38.995Z,100398.22
2022-08-14T06:59:15.750Z,100398.78
2022-08-14T07:02:05.541Z,100393.63
2022-08-14T07:04:58.154Z,100388.50
2022-08-14T07:07:25.156Z,100394.09
2022-08-14T07:09:55.552Z,100399.63
2022-08-14T07:12:54.662Z,100401.56
2022-08-14T07:15:09.248Z,100401.72
2022-08-14T07:17:44.806Z,100394.78
2022-08-14T07:20:11.595Z,100388.19
2022-08-14T07:22:50.050Z,100392.16
2022-08-14T07:25:23.038Z,100401.47
2022-08-14T07:28:00.204Z,100400.16
2022-08-14T07:30:33.979Z,100394.53
2022-08-14T07:33:01.729Z,100388.69
2022-08-14T07:35:30.312Z,100385.88
2022-08-14T07:38:06.016Z,100391.91
2022-08-14T07:40:35.371Z,100394.06
2022-08-14T07:43:14.168Z,100391.03
2022-08-14T07:45:41.596Z,100400.22
2022-08-14T07:48:09.171Z,100403.91
2022-08-14T07:50:42.402Z,100402.28
2022-08-14T07:53:14.435Z,100413.03
2022-08-14T07:55:42.483Z,100413.41
2022-08-14T07:58:30.224Z,100411.88
2022-08-14T08:00:58.030Z,100408.38
2022-08-14T08:03:28.161Z,100419.69
2022-08-14T08:05:57.226Z,100423.69
2022-08-14T08:08:26.981Z,100419.69
2022-08-14T08:11:02.979Z,100419.09
2022-08-14T08:13:33.567Z,100415.44
2022-08-14T08:16:02.029Z,100410.13
2022-08-14T08:18:29.556Z,100419.38
2022-08-14T08:20:59.357Z,100419.97
2022-08-14T08:23:34.380Z,100428.88
2022-08-14T08:26:06.845Z,100424.75
2022-08-14T08:28:34.270Z,100428.25
2022-08-14T08:31:04.334Z,100430.81
2022-08-14T08:33:36.837Z,100429.88
2022-08-14T08:36:07.965Z,100423.25
2022-08-14T08:39:18.489Z,100418.34
2022-08-14T08:41:22.537Z,100425.94
2022-08-14T08:43:51.099Z,100430.41
2022-08-14T08:46:21.774Z,100425.06
2022-08-14T08:51:25.263Z,100423.19
2022-08-14T08:54:05.444Z,100426.69
2022-08-14T08:56:40.476Z,100404.97
2022-08-14T08:59:20.941Z,100404.13
2022-08-14T09:01:56.426Z,100402.41
2022-08-14T09:04:29.133Z,100402.00
2022-08-14T09:07:09.362Z,100400.50
2022-08-14T09:09:56.862Z,100383.25
2022-08-14T09:12:27.069Z,100388.00
2022-08-14T09:14:57.098Z,100386.50
2022-08-14T09:17:25.902Z,100384.78
2022-08-14T09:19:53.695Z,100372.81
2022-08-14T09:22:36.133Z,100360.81
2022-08-14T09:25:07.343Z,100360.13
2022-08-14T09:27:35.537Z,100362.19
2022-08-14T09:30:02.110Z,100358.78
2022-08-14T09:33:04.846Z,100359.31
2022-08-14T09:35:40.208Z,100356.09
2022-08-14T09:38:25.833Z,100351.72
2022-08-14T09:41:13.553Z,100360.69
2022-08-14T09:44:07.945Z,100353.94
2022-08-14T09:46:35.373Z,100358.19
2022-08-14T09:49:07.576Z,100363.81
2022-08-14T09:51:44.949Z,100366.47
2022-08-14T09:54:23.609Z,100355.09
2022-08-14T09:56:59.422Z,100355.25
2022-08-14T09:59:28.437Z,100355.25
2022-08-14T10:02:01.079Z,100356.34
2022-08-14T10:04:34.258Z,100355.41
2022-08-14T10:07:05.332Z,100355.16
2022-08-14T10:09:34.796Z,100355.19
2022-08-14T10:12:04.770Z,100354.50
2022-08-14T10:14:36.724Z,100348.47
2022-08-14T10:17:06.283Z,100346.53
2022-08-14T10:19:36.501Z,100351.03
2022-08-14T10:23:13.328Z,100342.16
2022-08-14T10:24:56.267Z,100337.81
2022-08-14T10:27:26.585Z,100321.25
2022-08-14T10:29:58.218Z,100321.53
2022-08-14T10:32:28.390Z,100317.13
2022-08-14T10:35:14.195Z,100331.34
2022-08-14T10:37:49.932Z,100323.16
2022-08-14T10:40:38.515Z,100314.34
2022-08-14T10:43:23.819Z,100312.00
2022-08-14T10:46:21.739Z,100314.66
2022-08-14T10:49:05.001Z,100299.72
2022-08-14T10:51:36.137Z,100304.16
2022-08-14T10:54:16.513Z,100297.03
2022-08-14T10:56:58.998Z,100301.53
2022-08-14T10:59:34.977Z,100297.31
2022-08-14T11:02:22.223Z,100306.25
2022-08-14T11:05:14.822Z,100291.13
2022-08-14T11:07:43.234Z,100293.75
2022-08-14T11:10:13.458Z,100286.41
2022-08-14T11:12:46.533Z,100282.81
2022-08-14T11:15:15.885Z,100274.97
2022-08-14T11:17:45.948Z,100268.81
2022-08-14T11:20:16.746Z,100272.34
2022-08-14T11:22:52.921Z,100264.16
2022-08-14T11:25:43.588Z,100257.06
2022-08-14T11:28:14.513Z,100253.75
2022-08-14T11:30:53.435Z,100250.34
2022-08-14T11:33:29.393Z,100247.69
2022-08-14T11:36:00.356Z,100248.78
2022-08-14T11:38:35.558Z,100253.19
2022-08-14T11:41:06.185Z,100246.09
2022-08-14T11:43:56.203Z,100244.09
2022-08-14T11:46:29.573Z,100237.75
2022-08-14T11:49:05.819Z,100242.41
2022-08-14T11:51:42.912Z,100234.72
2022-08-14T11:54:20.143Z,100242.78
2022-08-14T11:56:50.653Z,100232.22
2022-08-14T11:59:19.870Z,100239.47
2022-08-14T12:02:09.571Z,100235.91
2022-08-14T12:04:56.300Z,100235.03
2022-08-14T12:07:24.818Z,100232.44
2022-08-14T12:09:56.797Z,100228.06
2022-08-14T12:12:47.222Z,100238.56
2022-08-14T12:15:13.002Z,100233.28
2022-08-14T12:17:51.885Z,100227.44
2022-08-14T12:20:30.088Z,100224.75
2022-08-14T12:23:00.719Z,100218.63
2022-08-14T12:25:29.034Z,100215.97
2022-08-14T12:27:59.122Z,100215.09
2022-08-14T12:30:39.676Z,100215.13
2022-08-14T12:33:32.822Z,100201.91
2022-08-14T12:36:07.987Z,100206.34
2022-08-14T12:38:37.420Z,100197.44
2022-08-14T12:41:10.785Z,100203.47
2022-08-14T12:43:51.472Z,100194.69
2022-08-14T12:46:43.630Z,100194.69
2022-08-14T12:49:17.028Z,100192.97
2022-08-14T12:51:56.517Z,100190.41
2022-08-14T12:54:28.219Z,100186.91
2022-08-14T12:57:14.652Z,100182.44
2022-08-14T12:59:45.534Z,100178.84
2022-08-14T13:02:26.406Z,100179.69
2022-08-14T13:04:55.791Z,100181.44
2022-08-14T13:07:24.156Z,100179.66
2022-08-14T13:09:55.616Z,100171.75
2022-08-14T13:12:33.213Z,100170.84
2022-08-14T13:15:08.938Z,100162.00
2022-08-14T13:17:44.611Z,100151.41
2022-08-14T13:20:24.796Z,100158.56
2022-08-14T13:22:53.233Z,100155.06
2022-08-14T13:25:22.839Z,100147.09
2022-08-14T13:27:54.763Z,100134.72
2022-08-14T13:30:24.524Z,100129.38
2022-08-14T13:32:57.924Z,100121.44
2022-08-14T13:35:25.340Z,100128.50
2022-08-14T13:37:53.429Z,100119.66
2022-08-14T13:40:26.661Z,100119.63
2022-08-14T13:42:56.831Z,100113.47
2022-08-14T13:45:33.867Z,100109.91
2022-08-14T13:48:18.465Z,100102.88
2022-08-14T13:50:59.256Z,100093.13
2022-08-14T13:53:33.381Z,100092.22
2022-08-14T13:56:01.445Z,100086.03
2022-08-14T13:58:35.698Z,100078.09
2022-08-14T14:01:04.438Z,100072.78
2022-08-14T14:03:35.222Z,100066.59
2022-08-14T14:06:03.437Z,100061.25
2022-08-14T14:08:45.881Z,100058.63
2022-08-14T14:11:17.017Z,100055.97
2022-08-14T14:13:45.989Z,100044.47
2022-08-14T14:16:15.120Z,100048.84
2022-08-14T14:18:55.835Z,100041.81
2022-08-14T14:21:26.622Z,100038.25
2022-08-14T14:23:56.265Z,100033.84
2022-08-14T14:26:24.303Z,100031.19
2022-08-14T14:28:55.334Z,100033.84
2022-08-14T14:31:30.094Z,100032.94
2022-08-14T14:34:07.303Z,100027.66
2022-08-14T14:36:43.793Z,100020.56
2022-08-14T14:39:11.092Z,100024.09
2022-08-14T14:41:43.861Z,100017.94
2022-08-14T14:44:15.629Z,100009.94
2022-08-14T14:46:45.014Z,100011.75
2022-08-14T14:49:14.346Z,100007.31
2022-08-14T14:51:46.939Z,100011.75
2022-08-14T14:54:31.669Z,100009.13
2022-08-14T14:57:02.483Z,100012.66
2022-08-14T14:59:35.961Z,100017.06
2022-08-14T15:02:06.326Z,100019.72
2022-08-14T15:04:37.850Z,100012.66
2022-08-14T15:07:05.928Z,100016.22
2022-08-14T15:09:34.025Z,100014.44
2022-08-14T15:12:00.743Z,100011.78
2022-08-14T15:14:55.057Z,100015.31
2022-08-14T15:17:13.931Z,100010.84
2022-08-14T15:19:42.051Z,100006.47
2022-08-14T15:22:25.072Z,100002.94
2022-08-14T15:24:51.941Z,99998.53
2022-08-14T15:27:26.326Z,99997.63
2022-08-14T15:29:53.503Z,100001.16
2022-08-14T15:32:23.169Z,99996.72
2022-08-14T15:34:51.514Z,99995.84
2022-08-14T15:37:22.082Z,99993.19
2022-08-14T15:39:49.910Z,99991.44
2022-08-14T15:42:23.060Z,99997.59
2022-08-14T15:44:58.016Z,99994.06
2022-08-14T15:47:30.134Z,100001.13
2022-08-14T15:50:04.404Z,99999.38
2022-08-14T15:52:35.245Z,100001.16
2022-08-14T15:55:07.538Z,100001.13
2022-08-14T15:57:34.998Z,100000.28
2022-08-14T16:00:37.902Z,99997.56
2022-08-14T16:03:11.567Z,99999.28
2022-08-14T16:05:38.894Z,99997.53
2022-08-14T16:08:29.376Z,99997.47
2022-08-14T16:10:55.127Z,99982.44
2022-08-14T16:13:41.629Z,99986.84
2022-08-14T16:16:49.159Z,99979.78
2022-08-14T16:19:09.673Z,99972.69
2022-08-14T16:21:40.539Z,99970.00
2022-08-14T16:24:27.874Z,99964.69
2022-08-14T16:27:00.922Z,99962.91
2022-08-14T16:29:32.861Z,99964.66
2022-08-14T16:32:02.021Z,99955.81
2022-08-14T16:34:51.098Z,99954.94
2022-08-14T16:37:22.530Z,99947.84
2022-08-14T16:39:49.434Z,99952.28
2022-08-14T16:43:02.419Z,99948.72
2022-08-14T16:45:12.749Z,99948.72
2022-08-14T16:47:39.986Z,99953.16
2022-08-14T16:50:10.453Z,99946.09
2022-08-14T16:52:44.921Z,99946.09
2022-08-14T16:55:22.403Z,99943.44
2022-08-14T16:57:58.779Z,99941.66
2022-08-14T17:00:43.851Z,99953.13
2022-08-14T17:03:12.666Z,99948.69
2022-08-14T17:05:46.567Z,99938.97
2022-08-14T17:08:41.532Z,99933.63
2022-08-14T17:11:10.633Z,99938.03
2022-08-14T17:13:59.215Z,99935.31
2022-08-14T17:16:38.552Z,99928.19
2022-08-14T17:19:13.772Z,99927.25
2022-08-14T17:21:42.026Z,99929.91
2022-08-14T17:24:57.804Z,99934.25
2022-08-14T17:27:04.006Z,99944.81
2022-08-14T17:29:33.724Z,99941.25
2022-08-14T17:32:22.074Z,99931.53
2022-08-14T17:34:55.304Z,99939.41
2022-08-14T17:37:35.455Z,99933.22
2022-08-14T17:40:13.754Z,99934.13
2022-08-14T17:42:45.427Z,99935.88
2022-08-14T17:45:41.236Z,99942.09
2022-08-14T17:49:13.807Z,99939.41
2022-08-14T17:51:12.338Z,99933.19
2022-08-14T17:53:52.692Z,99940.25
2022-08-14T17:56:20.545Z,99938.47
2022-08-14T17:58:49.431Z,99950.78
2022-08-14T18:01:17.405Z,99956.94
2022-08-14T18:03:53.622Z,99959.53
2022-08-14T18:06:39.988Z,99955.06
2022-08-14T18:09:25.186Z,99956.72
2022-08-14T18:12:01.361Z,99963.63
2022-08-14T18:14:32.387Z,99957.34
2022-08-14T18:17:01.489Z,99959.09
2022-08-14T18:19:30.762Z,99959.09
2022-08-14T18:21:59.556Z,99974.97
2022-08-14T18:24:29.873Z,99960.91
2022-08-14T18:27:11.894Z,99962.63
2022-08-14T18:29:54.959Z,99961.69
2022-08-14T18:32:31.389Z,99964.81
2022-08-14T18:35:11.304Z,99973.28
2022-08-14T18:37:41.394Z,99972.19
2022-08-14T18:40:22.484Z,99974.66
2022-08-14T18:43:03.365Z,99978.84
2022-08-14T18:45:33.385Z,99978.78
2022-08-14T18:48:18.571Z,99989.34
2022-08-14T18:50:52.273Z,99996.31
2022-08-14T18:53:20.361Z,100003.22
2022-08-14T18:55:59.798Z,100001.28
2022-08-14T18:58:58.604Z,100015.03
2022-08-14T19:01:29.810Z,100006.91
2022-08-14T19:03:58.575Z,100012.94
2022-08-14T19:06:37.619Z,100018.25
2022-08-14T19:09:05.094Z,100019.13
2022-08-14T19:11:31.937Z,100026.22
2022-08-14T19:13:59.756Z,100021.88
2022-08-14T19:16:35.647Z,100028.06
2022-08-14T19:19:06.791Z,100027.13
2022-08-14T19:21:40.047Z,100033.31
2022-08-14T19:24:27.323Z,100030.66
2022-08-14T19:27:16.768Z,100028.06
2022-08-14T19:29:47.652Z,100029.84
2022-08-14T19:32:36.837Z,100037.75
2022-08-14T19:35:16.859Z,100037.56
2022-08-14T19:38:00.206Z,100034.00
2022-08-14T19:40:39.147Z,100043.66
2022-08-14T19:43:09.392Z,100040.06
2022-08-14T19:45:38.072Z,100030.41
2022-08-14T19:48:12.706Z,100029.59
2022-08-14T19:50:40.542Z,100024.31
2022-08-14T19:53:16.643Z,100026.09
2022-08-14T19:55:54.483Z,100025.22
2022-08-14T19:58:30.135Z,100014.69
2022-08-14T20:01:01.446Z,100019.03
2022-08-14T20:03:59.790Z,100024.13
2022-08-14T20:06:28.201Z,100020.59
2022-08-14T20:11:01.368Z,100020.50
2022-08-14T20:12:01.507Z,100015.94
2022-08-14T20:14:36.546Z,100013.22
2022-08-14T20:17:06.702Z,100010.53
2022-08-14T20:19:37.777Z,100013.22
2022-08-14T20:22:36.342Z,100020.06
2022-08-14T20:25:10.931Z,100023.47
2022-08-14T20:27:44.123Z,100017.25
2022-08-14T20:30:33.037Z,100029.53
2022-08-14T20:33:07.667Z,100026.06
2022-08-14T20:35:39.643Z,100023.38
2022-08-14T20:38:31.815Z,100032.00
2022-08-14T20:41:07.555Z,100037.78
2022-08-14T20:43:59.456Z,100035.94
2022-08-14T20:46:31.250Z,100034.22
2022-08-14T20:49:16.493Z,100024.72
2022-08-14T20:51:54.632Z,100027.59
2022-08-14T20:54:49.317Z,100031.22
2022-08-14T20:57:18.722Z,100039.03
2022-08-14T20:59:53.436Z,100038.00
2022-08-14T21:02:29.705Z,100036.13
2022-08-14T21:05:04.564Z,100032.53
2022-08-14T21:07:44.455Z,100035.94
2022-08-14T21:10:35.826Z,100040.06
2022-08-14T21:13:25.754Z,100033.00
2022-08-14T21:15:56.689Z,100020.06
2022-08-14T21:18:24.367Z,100014.00
2022-08-14T21:20:56.256Z,100014.16
2022-08-14T21:23:23.157Z,100021.09
2022-08-14T21:25:50.012Z,100010.41
2022-08-14T21:28:29.774Z,100017.38
2022-08-14T21:31:01.497Z,100009.22
2022-08-14T21:33:28.574Z,99998.56
2022-08-14T21:36:08.050Z,100000.34
2022-08-14T21:38:36.456Z,100004.81
2022-08-14T21:41:42.156Z,100008.97
2022-08-14T21:44:17.019Z,100011.34
2022-08-14T21:46:55.024Z,100013.06
2022-08-14T21:49:23.871Z,100018.16
2022-08-14T21:51:59.901Z,100021.50
2022-08-14T21:54:49.338Z,100018.75
2022-08-14T21:58:03.554Z,100023.00
2022-08-14T22:00:34.655Z,100030.78
2022-08-14T22:03:00.474Z,100034.34
2022-08-14T22:05:29.523Z,100029.09
2022-08-14T22:07:56.704Z,100033.75
2022-08-14T22:10:24.241Z,100035.75
2022-08-14T22:13:00.680Z,100033.09
2022-08-14T22:15:28.921Z,100041.91
2022-08-14T22:17:58.247Z,100039.13
2022-08-14T22:20:28.835Z,100052.06
2022-08-14T22:22:56.653Z,100056.44
2022-08-14T22:25:33.226Z,100041.81
2022-08-14T22:28:00.933Z,100047.13
2022-08-14T22:30:27.527Z,100038.41
2022-08-14T22:32:56.622Z,100035.84
2022-08-14T22:35:25.216Z,100033.16
2022-08-14T22:38:35.895Z,100030.44
2022-08-14T22:41:02.711Z,100034.69
2022-08-14T22:43:31.393Z,100039.00
2022-08-14T22:46:02.143Z,100027.69
2022-08-14T22:48:29.707Z,100027.13
2022-08-14T22:50:56.334Z,100030.41
2022-08-14T22:53:29.590Z,100024.75
2022-08-14T22:55:56.777Z,100021.84
2022-08-14T22:58:31.433Z,100019.97
2022-08-14T23:01:02.323Z,100014.75
2022-08-14T23:03:34.101Z,100011.41
2022-08-14T23:06:02.131Z,100004.59
2022-08-14T23:08:58.573Z,100007.25
2022-08-14T23:11:15.836Z,100007.22
2022-08-14T23:13:46.141Z,100008.09
2022-08-14T23:16:20.477Z,100008.13
2022-08-14T23:18:53.881Z,100004.66
2022-08-14T23:21:24.613Z,99988.03
2022-08-14T23:23:55.126Z,99989.72
2022-08-14T23:26:48.990Z,99993.06
2022-08-14T23:29:09.073Z,100002.53
2022-08-14T23:31:38.388Z,99991.81
2022-08-14T23:34:09.125Z,99996.25
2022-08-14T23:36:53.410Z,99997.97
2022-08-14T23:39:32.515Z,100003.13
2022-08-14T23:42:08.482Z,99995.19
2022-08-14T23:44:37.521Z,99993.50
2022-08-14T23:47:10.617Z,100000.56
2022-08-14T23:50:00.410Z,99992.50
2022-08-14T23:52:56.256Z,99992.41
2022-08-14T23:55:13.287Z,99995.78
2022-08-14T23:57:43.952Z,99992.16
